createdAt,value
2023-02-06T00:01:10.646Z,60.10
2023-02-06T00:05:22.207Z,60.30
2023-02-06T00:09:29.587Z,57.30
2023-02-06T00:13:37.805Z,56.70
2023-02-06T00:17:45.525Z,60.00
2023-02-06T00:21:53.235Z,56.20
2023-02-06T00:26:02.027Z,52.60
2023-02-06T00:30:11.196Z,50.80
2023-02-06T00:34:18.947Z,46.70
2023-02-06T00:38:26.306Z,42.70
2023-02-06T00:42:33.635Z,43.10
2023-02-06T00:46:42.204Z,43.60
2023-02-06T00:50:51.237Z,46.60
2023-02-06T00:54:58.926Z,41.70
2023-02-06T00:59:06.618Z,42.20
2023-02-06T01:03:14.158Z,35.50
2023-02-06T01:07:21.501Z,37.70
2023-02-06T01:11:29.103Z,39.30
2023-02-06T01:15:36.811Z,41.40
2023-02-06T01:19:44.710Z,35.80
2023-02-06T01:23:53.565Z,39.80
2023-02-06T01:28:02.362Z,34.80
2023-02-06T01:32:09.873Z,33.80
2023-02-06T01:36:18.569Z,35.70
2023-02-06T01:40:26.598Z,40.40
2023-02-06T01:44:36.680Z,39.30
2023-02-06T01:48:46.205Z,37.70
2023-02-06T01:52:54.679Z,38.00
2023-02-06T01:57:04.872Z,37.40
2023-02-06T02:01:12.450Z,39.30
2023-02-06T02:05:21.106Z,42.50
2023-02-06T02:09:29.383Z,38.90
2023-02-06T02:13:38.466Z,38.90
2023-02-06T02:17:53.827Z,39.70
2023-02-06T02:22:19.641Z,45.10
2023-02-06T02:26:58.257Z,51.00
2023-02-06T02:31:24.414Z,46.60
2023-02-06T02:35:37.773Z,44.30
2023-02-06T02:39:48.801Z,46.10
2023-02-06T02:44:00.122Z,48.20
2023-02-06T02:48:10.464Z,41.60
2023-02-06T02:52:19.786Z,42.50
2023-02-06T02:56:30.106Z,47.30
2023-02-06T03:00:41.196Z,49.20
2023-02-06T03:04:51.456Z,59.60
2023-02-06T03:09:05.006Z,59.10
2023-02-06T03:13:17.690Z,62.30
2023-02-06T03:17:32.779Z,62.00
2023-02-06T03:21:42.600Z,49.70
2023-02-06T03:25:52.738Z,51.20
2023-02-06T03:30:02.162Z,51.00
2023-02-06T03:34:13.697Z,54.20
2023-02-06T03:38:21.462Z,57.80
2023-02-06T03:42:30.320Z,50.00
2023-02-06T03:46:39.774Z,54.30
2023-02-06T03:50:50.358Z,59.00
2023-02-06T03:55:02.596Z,70.50
2023-02-06T03:59:11.123Z,71.10
2023-02-06T04:03:20.114Z,69.10
2023-02-06T04:07:29.060Z,59.60
2023-02-06T04:11:36.989Z,55.90
2023-02-06T04:15:44.626Z,57.50
2023-02-06T04:19:52.164Z,53.00
2023-02-06T04:24:00.869Z,52.80
2023-02-06T04:28:09.215Z,54.40
2023-02-06T04:32:17.131Z,52.80
2023-02-06T04:36:24.733Z,63.80
2023-02-06T04:40:32.247Z,63.90
2023-02-06T04:44:40.647Z,67.60
2023-02-06T04:48:48.343Z,50.20
2023-02-06T04:52:55.935Z,54.50
2023-02-06T04:57:05.077Z,45.70
2023-02-06T05:01:12.743Z,54.00
2023-02-06T05:05:20.530Z,45.20
2023-02-06T05:09:28.570Z,46.00
2023-02-06T05:13:36.967Z,45.90
2023-02-06T05:17:45.822Z,46.20
2023-02-06T05:21:57.103Z,48.20
2023-02-06T05:26:06.128Z,52.30
2023-02-06T05:30:15.770Z,48.60
2023-02-06T05:34:23.581Z,50.40
2023-02-06T05:38:31.388Z,51.10
2023-02-06T05:42:39.010Z,47.70
2023-02-06T05:46:48.620Z,45.30
2023-02-06T05:50:56.567Z,45.60
2023-02-06T05:55:04.329Z,41.10
2023-02-06T05:59:12.134Z,45.00
2023-02-06T06:03:19.496Z,43.60
2023-02-06T06:07:26.799Z,43.00
2023-02-06T06:11:34.697Z,48.70
2023-02-06T06:15:42.447Z,47.30
2023-02-06T06:19:50.434Z,48.30
2023-02-06T06:23:58.444Z,48.60
2023-02-06T06:28:06.714Z,47.80
2023-02-06T06:32:14.085Z,39.80
2023-02-06T06:36:21.556Z,39.10
2023-02-06T06:40:29.783Z,42.60
2023-02-06T06:44:37.492Z,47.60
2023-02-06T06:48:45.727Z,52.30
2023-02-06T06:52:53.526Z,53.00
2023-02-06T06:57:01.259Z,63.40
2023-02-06T07:01:10.097Z,72.60
2023-02-06T07:05:17.913Z,63.90
2023-02-06T07:09:25.824Z,64.90
2023-02-06T07:13:33.423Z,64.60
2023-02-06T07:17:41.045Z,54.40
2023-02-06T07:21:59.222Z,68.10
2023-02-06T07:26:08.331Z,74.30
2023-02-06T07:30:24.203Z,85.40
2023-02-06T07:34:39.161Z,75.50
2023-02-06T07:38:48.440Z,74.30
2023-02-06T07:43:00.402Z,57.30
2023-02-06T07:47:15.539Z,72.70
2023-02-06T07:51:27.997Z,84.30
2023-02-06T07:55:38.557Z,77.20
2023-02-06T07:59:46.403Z,58.70
2023-02-06T08:04:04.424Z,49.30
2023-02-06T08:08:18.895Z,49.40
2023-02-06T08:12:27.039Z,41.80
2023-02-06T08:16:34.662Z,41.10
2023-02-06T08:20:45.319Z,30.50
2023-02-06T08:24:55.524Z,30.90
2023-02-06T08:29:14.565Z,32.20
2023-02-06T08:33:23.527Z,34.80
2023-02-06T08:37:34.961Z,35.60
2023-02-06T08:41:46.451Z,34.30
2023-02-06T08:45:56.224Z,28.30
2023-02-06T08:50:07.697Z,28.90
2023-02-06T08:54:17.609Z,26.90
2023-02-06T08:58:30.170Z,24.60
2023-02-06T09:02:40.018Z,23.20
2023-02-06T09:06:49.306Z,23.10
2023-02-06T09:10:57.856Z,24.80
2023-02-06T09:15:07.017Z,22.10
2023-02-06T09:19:16.504Z,21.80
2023-02-06T09:23:24.463Z,24.40
2023-02-06T09:27:32.266Z,21.60
2023-02-06T09:31:41.448Z,16.20
2023-02-06T09:35:49.447Z,15.20
2023-02-06T09:39:56.841Z,10.60
2023-02-06T09:44:13.018Z,12.40
2023-02-06T09:48:24.213Z,12.20
2023-02-06T09:52:53.420Z,12.00
2023-02-06T09:57:06.018Z,13.60
2023-02-06T10:01:20.656Z,11.80
2023-02-06T10:05:35.014Z,13.10
2023-02-06T10:09:45.466Z,11.10
2023-02-06T10:13:55.776Z,13.00
2023-02-06T10:18:09.331Z,15.20
2023-02-06T10:22:21.461Z,11.00
2023-02-06T10:26:31.013Z,11.70
2023-02-06T10:31:01.804Z,15.00
2023-02-06T10:35:33.502Z,15.10
2023-02-06T10:39:53.013Z,14.40
2023-02-06T10:44:04.110Z,14.30
2023-02-06T10:48:18.328Z,14.40
2023-02-06T10:52:28.582Z,16.10
2023-02-06T10:56:41.033Z,18.00
2023-02-06T11:00:49.499Z,14.20
2023-02-06T11:05:05.429Z,13.60
2023-02-06T11:09:13.453Z,14.90
2023-02-06T11:13:28.658Z,14.30
2023-02-06T11:17:39.339Z,15.50
2023-02-06T11:21:56.524Z,12.70
2023-02-06T11:26:14.390Z,14.90
2023-02-06T11:30:38.319Z,14.00
2023-02-06T11:34:54.906Z,14.50
2023-02-06T11:39:06.218Z,14.40
2023-02-06T11:43:22.821Z,14.20
2023-02-06T11:47:35.049Z,11.90
2023-02-06T11:51:52.977Z,11.30
2023-02-06T11:56:06.527Z,12.30
2023-02-06T12:00:24.856Z,13.90
2023-02-06T12:04:35.683Z,13.50
2023-02-06T12:08:52.576Z,13.60
2023-02-06T12:13:06.485Z,14.40
2023-02-06T12:17:21.972Z,19.40
2023-02-06T12:21:36.566Z,20.50
2023-02-06T12:25:44.984Z,16.40
2023-02-06T12:30:03.319Z,17.70
2023-02-06T12:34:18.585Z,15.70
2023-02-06T12:38:32.066Z,15.30
2023-02-06T12:42:43.240Z,14.90
2023-02-06T12:46:56.739Z,14.80
2023-02-06T12:51:11.570Z,12.80
2023-02-06T12:55:24.260Z,14.60
2023-02-06T12:59:58.167Z,14.90
2023-02-06T13:04:16.049Z,17.60
2023-02-06T13:08:26.888Z,16.40
2023-02-06T13:12:35.675Z,17.60
2023-02-06T13:16:51.716Z,16.40
2023-02-06T13:21:19.463Z,14.10
2023-02-06T13:25:55.802Z,16.80
2023-02-06T13:30:42.707Z,23.60
2023-02-06T13:34:57.699Z,17.30
2023-02-06T13:39:24.398Z,17.50
2023-02-06T13:43:32.459Z,19.50
2023-02-06T13:48:07.255Z,16.10
2023-02-06T13:52:19.979Z,17.10
2023-02-06T13:56:45.724Z,15.30
2023-02-06T14:00:54.875Z,18.60
2023-02-06T14:05:03.641Z,18.10
2023-02-06T14:09:30.792Z,15.30
2023-02-06T14:13:59.261Z,14.90
2023-02-06T14:18:29.532Z,20.50
2023-02-06T14:22:43.734Z,18.20
2023-02-06T14:27:01.138Z,18.70
2023-02-06T14:31:16.557Z,19.60
2023-02-06T14:35:47.510Z,20.40
2023-02-06T14:39:56.091Z,19.10
2023-02-06T14:44:03.857Z,19.80
2023-02-06T14:48:22.276Z,20.50
2023-02-06T14:52:31.234Z,22.10
2023-02-06T14:56:40.625Z,22.70
2023-02-06T15:00:49.116Z,24.70
2023-02-06T15:04:56.957Z,25.10
2023-02-06T15:09:06.477Z,22.30
2023-02-06T15:13:24.277Z,21.70
2023-02-06T15:17:34.273Z,24.20
2023-02-06T15:21:44.361Z,23.90
2023-02-06T15:26:00.953Z,22.90
2023-02-06T15:30:19.692Z,22.40
2023-02-06T15:34:28.554Z,23.30
2023-02-06T15:38:37.484Z,24.80
2023-02-06T15:42:45.965Z,26.40
2023-02-06T15:46:57.544Z,23.40
2023-02-06T15:51:17.971Z,26.80
2023-02-06T15:55:28.261Z,22.40
2023-02-06T15:59:38.289Z,26.70
2023-02-06T16:03:46.505Z,23.50
2023-02-06T16:07:59.641Z,23.80
2023-02-06T16:12:07.866Z,29.00
2023-02-06T16:16:24.761Z,28.50
2023-02-06T16:20:40.314Z,24.50
2023-02-06T16:24:50.464Z,28.20
2023-02-06T16:29:02.831Z,21.90
2023-02-06T16:33:21.749Z,21.30
2023-02-06T16:37:32.612Z,21.90
2023-02-06T16:41:42.874Z,22.80
2023-02-06T16:45:50.951Z,25.30
2023-02-06T16:49:59.302Z,23.20
2023-02-06T16:54:09.627Z,25.90
2023-02-06T16:58:20.475Z,22.80
2023-02-06T17:02:29.898Z,27.40
2023-02-06T17:06:39.071Z,21.90
2023-02-06T17:10:47.349Z,23.40
2023-02-06T17:14:56.294Z,27.70
2023-02-06T17:19:04.137Z,27.10
2023-02-06T17:23:22.402Z,28.90
2023-02-06T17:27:30.525Z,39.10
2023-02-06T17:31:38.816Z,34.50
2023-02-06T17:35:46.305Z,37.20
2023-02-06T17:39:55.756Z,31.40
2023-02-06T17:44:03.888Z,35.40
2023-02-06T17:48:12.111Z,29.50
2023-02-06T17:52:21.940Z,34.70
2023-02-06T17:56:30.115Z,29.00
2023-02-06T18:00:38.874Z,25.90
2023-02-06T18:04:48.907Z,26.60
2023-02-06T18:08:56.255Z,25.20
2023-02-06T18:13:04.109Z,28.60
2023-02-06T18:17:13.213Z,24.50
2023-02-06T18:21:25.278Z,29.20
2023-02-06T18:25:33.168Z,39.50
2023-02-06T18:29:49.684Z,74.20
2023-02-06T18:33:58.936Z,96.30
2023-02-06T18:38:10.083Z,106.80
2023-02-06T18:42:35.596Z,84.30
2023-02-06T18:46:44.084Z,88.50
2023-02-06T18:50:52.423Z,82.20
2023-02-06T18:55:00.253Z,83.90
2023-02-06T18:59:08.966Z,73.20
2023-02-06T19:03:17.467Z,86.10
2023-02-06T19:07:25.203Z,88.20
2023-02-06T19:11:33.126Z,69.90
2023-02-06T19:15:41.519Z,46.30
2023-02-06T19:19:49.826Z,44.90
2023-02-06T19:23:59.674Z,58.40
2023-02-06T19:28:07.944Z,64.20
2023-02-06T19:32:17.298Z,78.80
2023-02-06T19:36:26.486Z,68.80
2023-02-06T19:40:35.800Z,71.60
2023-02-06T19:44:45.092Z,61.40
2023-02-06T19:48:54.177Z,67.90
2023-02-06T19:53:02.309Z,70.00
2023-02-06T19:57:10.261Z,68.80
2023-02-06T20:01:19.595Z,82.80
2023-02-06T20:05:28.181Z,62.30
2023-02-06T20:09:36.736Z,59.90
2023-02-06T20:13:44.592Z,61.60
2023-02-06T20:17:53.901Z,52.40
2023-02-06T20:22:04.570Z,56.10
2023-02-06T20:26:12.725Z,49.90
2023-02-06T20:30:22.455Z,58.90
2023-02-06T20:34:31.326Z,54.20
2023-02-06T20:38:41.679Z,52.50
2023-02-06T20:42:49.540Z,53.70
2023-02-06T20:46:57.475Z,58.10
2023-02-06T20:51:07.690Z,62.90
2023-02-06T20:55:15.418Z,65.00
2023-02-06T20:59:24.550Z,65.00
2023-02-06T21:03:32.243Z,66.00
2023-02-06T21:07:40.745Z,63.00
2023-02-06T21:11:50.505Z,72.60
2023-02-06T21:15:59.773Z,73.10
2023-02-06T21:20:10.051Z,64.50
2023-02-06T21:24:19.481Z,64.70
2023-02-06T21:28:27.864Z,61.90
2023-02-06T21:32:35.621Z,57.40
2023-02-06T21:36:44.089Z,81.90
2023-02-06T21:40:51.976Z,109.10
2023-02-06T21:44:59.730Z,96.80
2023-02-06T21:49:09.420Z,123.40
2023-02-06T21:53:17.392Z,154.00
2023-02-06T21:57:24.948Z,164.70
2023-02-06T22:01:35.161Z,179.60
2023-02-06T22:05:43.315Z,183.80
2023-02-06T22:09:50.934Z,199.00
2023-02-06T22:14:01.576Z,219.90
2023-02-06T22:18:10.754Z,184.90
2023-02-06T22:22:19.685Z,165.40
2023-02-06T22:26:28.092Z,148.90
2023-02-06T22:30:36.839Z,165.90
2023-02-06T22:34:44.897Z,162.30
2023-02-06T22:38:56.797Z,178.60
2023-02-06T22:43:04.872Z,192.40
2023-02-06T22:47:13.353Z,178.90
2023-02-06T22:51:21.397Z,145.40
2023-02-06T22:55:49.922Z,131.00
2023-02-06T22:59:58.069Z,112.60
2023-02-06T23:04:09.468Z,121.50
2023-02-06T23:08:19.493Z,111.70
2023-02-06T23:12:28.029Z,99.00
2023-02-06T23:16:38.942Z,90.40
2023-02-06T23:20:46.970Z,86.20
2023-02-06T23:24:56.882Z,94.60
2023-02-06T23:29:06.366Z,89.80
2023-02-06T23:33:14.550Z,110.80
2023-02-06T23:37:22.356Z,103.30
2023-02-06T23:41:30.702Z,107.50
2023-02-06T23:45:41.445Z,103.60
2023-02-06T23:49:49.736Z,97.90
2023-02-06T23:53:57.493Z,98.30
2023-02-06T23:58:06.406Z,106.40
